sensor_id;sensor_type;location;lat;lon;timestamp;P1;P2;P0
23240;PMS7003;11789;53.482;9.862;2023-11-21T00:00:25;14.75;14.75;9.00
23240;PMS7003;11789;53.482;9.862;2023-11-21T00:02:51;16.50;15.50;8.75
23240;PMS7003;11789;53.482;9.862;2023-11-21T00:05:16;19.00;18.25;9.25
23240;PMS7003;11789;53.482;9.862;2023-11-21T00:07:42;18.00;17.00;10.50
23240;PMS7003;11789;53.482;9.862;2023-11-21T00:10:08;20.75;18.25;10.00
23240;PMS7003;11789;53.482;9.862;2023-11-21T00:12:36;22.00;18.75;10.00
23240;PMS7003;11789;53.482;9.862;2023-11-21T00:15:02;23.25;17.75;11.00
23240;PMS7003;11789;53.482;9.862;2023-11-21T00:17:30;21.25;20.50;10.50
23240;PMS7003;11789;53.482;9.862;2023-11-21T00:19:56;21.50;17.00;8.25
23240;PMS7003;11789;53.482;9.862;2023-11-21T00:22:21;25.00;20.50;11.75
23240;PMS7003;11789;53.482;9.862;2023-11-21T00:24:47;19.25;18.50;10.75
23240;PMS7003;11789;53.482;9.862;2023-11-21T00:27:13;21.00;19.50;11.00
23240;PMS7003;11789;53.482;9.862;2023-11-21T00:29:39;18.25;17.00;10.25
23240;PMS7003;11789;53.482;9.862;2023-11-21T00:32:05;22.00;21.00;11.00
23240;PMS7003;11789;53.482;9.862;2023-11-21T00:34:31;22.00;19.75;11.75
23240;PMS7003;11789;53.482;9.862;2023-11-21T00:36:57;22.50;19.50;13.75
23240;PMS7003;11789;53.482;9.862;2023-11-21T00:39:23;21.00;20.00;11.00
23240;PMS7003;11789;53.482;9.862;2023-11-21T00:41:49;26.00;23.00;12.75
23240;PMS7003;11789;53.482;9.862;2023-11-21T00:44:14;20.00;20.00;11.25
23240;PMS7003;11789;53.482;9.862;2023-11-21T00:46:41;26.25;21.25;11.75
23240;PMS7003;11789;53.482;9.862;2023-11-21T00:49:06;26.25;25.25;15.00
23240;PMS7003;11789;53.482;9.862;2023-11-21T00:51:33;27.50;22.00;14.00
23240;PMS7003;11789;53.482;9.862;2023-11-21T00:53:58;22.75;21.25;13.50
23240;PMS7003;11789;53.482;9.862;2023-11-21T00:56:24;21.00;17.75;11.25
23240;PMS7003;11789;53.482;9.862;2023-11-21T00:58:49;21.00;17.75;10.00
23240;PMS7003;11789;53.482;9.862;2023-11-21T01:01:17;18.25;15.75;10.00
23240;PMS7003;11789;53.482;9.862;2023-11-21T01:03:43;19.25;19.00;9.75
23240;PMS7003;11789;53.482;9.862;2023-11-21T01:06:11;17.25;17.25;10.25
23240;PMS7003;11789;53.482;9.862;2023-11-21T01:08:36;15.50;15.50;10.75
23240;PMS7003;11789;53.482;9.862;2023-11-21T01:11:01;20.75;17.25;10.00
23240;PMS7003;11789;53.482;9.862;2023-11-21T01:13:27;21.50;17.00;11.25
23240;PMS7003;11789;53.482;9.862;2023-11-21T01:15:53;17.50;15.00;9.00
23240;PMS7003;11789;53.482;9.862;2023-11-21T01:18:19;14.75;14.25;8.75
23240;PMS7003;11789;53.482;9.862;2023-11-21T01:20:44;15.75;12.50;8.00
23240;PMS7003;11789;53.482;9.862;2023-11-21T01:23:12;21.50;16.00;9.00
23240;PMS7003;11789;53.482;9.862;2023-11-21T01:25:38;18.50;14.25;9.00
23240;PMS7003;11789;53.482;9.862;2023-11-21T01:28:03;14.25;14.25;9.00
23240;PMS7003;11789;53.482;9.862;2023-11-21T01:30:29;17.75;15.00;7.25
23240;PMS7003;11789;53.482;9.862;2023-11-21T01:32:54;17.75;17.00;11.75
23240;PMS7003;11789;53.482;9.862;2023-11-21T01:35:19;20.00;19.50;12.00
23240;PMS7003;11789;53.482;9.862;2023-11-21T01:37:45;17.75;17.50;10.75
23240;PMS7003;11789;53.482;9.862;2023-11-21T01:40:10;26.75;21.50;13.50
23240;PMS7003;11789;53.482;9.862;2023-11-21T01:42:39;22.50;20.50;12.25
23240;PMS7003;11789;53.482;9.862;2023-11-21T01:45:05;25.50;25.25;14.00
23240;PMS7003;11789;53.482;9.862;2023-11-21T01:47:34;21.00;20.25;13.00
23240;PMS7003;11789;53.482;9.862;2023-11-21T01:50:01;27.25;24.25;14.75
23240;PMS7003;11789;53.482;9.862;2023-11-21T01:52:29;29.75;23.75;13.00
23240;PMS7003;11789;53.482;9.862;2023-11-21T01:54:55;26.00;24.25;13.75
23240;PMS7003;11789;53.482;9.862;2023-11-21T01:57:23;27.00;22.00;12.75
23240;PMS7003;11789;53.482;9.862;2023-11-21T01:59:48;26.00;23.50;15.00
23240;PMS7003;11789;53.482;9.862;2023-11-21T02:02:15;26.75;24.50;13.75
23240;PMS7003;11789;53.482;9.862;2023-11-21T02:04:40;22.50;22.50;13.75
23240;PMS7003;11789;53.482;9.862;2023-11-21T02:07:06;21.00;21.00;14.00
23240;PMS7003;11789;53.482;9.862;2023-11-21T02:09:32;25.00;23.50;13.50
23240;PMS7003;11789;53.482;9.862;2023-11-21T02:11:59;27.00;23.75;13.25
23240;PMS7003;11789;53.482;9.862;2023-11-21T02:14:25;27.00;22.25;14.75
23240;PMS7003;11789;53.482;9.862;2023-11-21T02:16:51;22.50;19.75;13.00
23240;PMS7003;11789;53.482;9.862;2023-11-21T02:19:19;28.00;24.25;15.00
23240;PMS7003;11789;53.482;9.862;2023-11-21T02:21:49;24.50;22.25;13.00
23240;PMS7003;11789;53.482;9.862;2023-11-21T02:24:15;22.25;21.00;13.00
23240;PMS7003;11789;53.482;9.862;2023-11-21T02:26:42;22.00;21.25;14.25
23240;PMS7003;11789;53.482;9.862;2023-11-21T02:29:08;21.25;18.50;12.25
23240;PMS7003;11789;53.482;9.862;2023-11-21T02:31:37;21.50;19.00;11.50
23240;PMS7003;11789;53.482;9.862;2023-11-21T02:34:10;18.50;16.50;11.00
23240;PMS7003;11789;53.482;9.862;2023-11-21T02:36:38;21.25;18.25;11.50
23240;PMS7003;11789;53.482;9.862;2023-11-21T02:39:04;14.50;14.50;12.00
23240;PMS7003;11789;53.482;9.862;2023-11-21T02:41:29;15.00;15.00;10.25
23240;PMS7003;11789;53.482;9.862;2023-11-21T02:43:55;18.50;15.25;9.50
23240;PMS7003;11789;53.482;9.862;2023-11-21T02:46:20;12.75;12.75;7.75
23240;PMS7003;11789;53.482;9.862;2023-11-21T02:48:47;15.25;13.75;9.75
23240;PMS7003;11789;53.482;9.862;2023-11-21T02:51:12;14.25;12.00;8.00
23240;PMS7003;11789;53.482;9.862;2023-11-21T02:53:38;12.00;12.00;8.25
23240;PMS7003;11789;53.482;9.862;2023-11-21T02:56:04;15.50;14.25;8.00
23240;PMS7003;11789;53.482;9.862;2023-11-21T02:58:30;18.00;12.75;8.00
23240;PMS7003;11789;53.482;9.862;2023-11-21T03:00:55;12.50;12.50;7.00
23240;PMS7003;11789;53.482;9.862;2023-11-21T03:03:21;14.25;10.00;7.00
23240;PMS7003;11789;53.482;9.862;2023-11-21T03:05:49;12.75;12.25;9.50
23240;PMS7003;11789;53.482;9.862;2023-11-21T03:08:14;12.75;11.25;8.25
23240;PMS7003;11789;53.482;9.862;2023-11-21T03:10:39;11.25;10.25;6.75
23240;PMS7003;11789;53.482;9.862;2023-11-21T03:13:05;11.00;11.00;6.50
23240;PMS7003;11789;53.482;9.862;2023-11-21T03:15:30;11.50;11.00;8.00
23240;PMS7003;11789;53.482;9.862;2023-11-21T03:17:57;15.50;13.25;10.25
23240;PMS7003;11789;53.482;9.862;2023-11-21T03:20:23;13.75;13.75;8.25
23240;PMS7003;11789;53.482;9.862;2023-11-21T03:22:48;13.00;13.00;8.75
23240;PMS7003;11789;53.482;9.862;2023-11-21T03:25:14;14.00;12.25;7.25
23240;PMS7003;11789;53.482;9.862;2023-11-21T03:27:42;19.25;13.00;7.00
23240;PMS7003;11789;53.482;9.862;2023-11-21T03:30:09;13.50;11.50;8.25
23240;PMS7003;11789;53.482;9.862;2023-11-21T03:32:36;11.75;11.75;7.00
23240;PMS7003;11789;53.482;9.862;2023-11-21T03:35:01;13.75;12.00;7.75
23240;PMS7003;11789;53.482;9.862;2023-11-21T03:37:28;16.00;13.75;8.75
23240;PMS7003;11789;53.482;9.862;2023-11-21T03:39:54;14.25;14.25;10.00
23240;PMS7003;11789;53.482;9.862;2023-11-21T03:42:22;14.75;13.00;9.00
23240;PMS7003;11789;53.482;9.862;2023-11-21T03:44:48;14.00;12.25;8.75
23240;PMS7003;11789;53.482;9.862;2023-11-21T03:47:13;18.00;14.25;10.25
23240;PMS7003;11789;53.482;9.862;2023-11-21T03:49:39;14.00;14.00;8.25
23240;PMS7003;11789;53.482;9.862;2023-11-21T03:52:04;11.25;10.75;6.50
23240;PMS7003;11789;53.482;9.862;2023-11-21T03:54:30;15.25;14.75;10.00
23240;PMS7003;11789;53.482;9.862;2023-11-21T03:56:56;15.25;14.00;8.50
23240;PMS7003;11789;53.482;9.862;2023-11-21T03:59:21;11.50;11.50;7.50
23240;PMS7003;11789;53.482;9.862;2023-11-21T04:01:49;13.25;13.25;10.00
23240;PMS7003;11789;53.482;9.862;2023-11-21T04:04:15;15.50;13.00;9.25
23240;PMS7003;11789;53.482;9.862;2023-11-21T04:06:41;11.00;9.50;8.25
23240;PMS7003;11789;53.482;9.862;2023-11-21T04:09:06;14.50;12.25;9.00
23240;PMS7003;11789;53.482;9.862;2023-11-21T04:11:32;16.50;14.75;10.25
23240;PMS7003;11789;53.482;9.862;2023-11-21T04:13:57;12.75;12.25;7.00
23240;PMS7003;11789;53.482;9.862;2023-11-21T04:16:22;13.75;13.75;9.50
23240;PMS7003;11789;53.482;9.862;2023-11-21T04:18:48;15.75;13.50;10.00
23240;PMS7003;11789;53.482;9.862;2023-11-21T04:21:13;15.75;14.00;10.25
23240;PMS7003;11789;53.482;9.862;2023-11-21T04:23:39;13.75;12.25;8.25
23240;PMS7003;11789;53.482;9.862;2023-11-21T04:26:05;19.00;16.25;11.75
23240;PMS7003;11789;53.482;9.862;2023-11-21T04:28:30;17.50;17.00;10.00
23240;PMS7003;11789;53.482;9.862;2023-11-21T04:30:56;19.75;14.00;7.50
23240;PMS7003;11789;53.482;9.862;2023-11-21T04:33:21;17.00;15.50;10.00
23240;PMS7003;11789;53.482;9.862;2023-11-21T04:35:47;16.00;16.00;10.00
23240;PMS7003;11789;53.482;9.862;2023-11-21T04:38:13;20.00;16.75;10.75
23240;PMS7003;11789;53.482;9.862;2023-11-21T04:40:39;19.25;16.25;10.25
23240;PMS7003;11789;53.482;9.862;2023-11-21T04:43:04;20.50;15.00;11.00
23240;PMS7003;11789;53.482;9.862;2023-11-21T04:45:30;13.50;13.50;9.25
23240;PMS7003;11789;53.482;9.862;2023-11-21T04:47:55;18.00;16.00;11.00
23240;PMS7003;11789;53.482;9.862;2023-11-21T04:50:21;21.75;17.75;12.00
23240;PMS7003;11789;53.482;9.862;2023-11-21T04:52:46;19.50;16.75;11.25
23240;PMS7003;11789;53.482;9.862;2023-11-21T04:55:12;20.50;18.00;11.25
23240;PMS7003;11789;53.482;9.862;2023-11-21T04:57:38;18.00;15.25;10.75
23240;PMS7003;11789;53.482;9.862;2023-11-21T05:00:06;13.75;13.75;9.75
23240;PMS7003;11789;53.482;9.862;2023-11-21T05:02:33;19.25;18.50;12.00
23240;PMS7003;11789;53.482;9.862;2023-11-21T05:05:00;16.00;14.25;10.75
23240;PMS7003;11789;53.482;9.862;2023-11-21T05:07:25;20.00;18.50;12.50
23240;PMS7003;11789;53.482;9.862;2023-11-21T05:09:54;20.00;18.50;12.50
23240;PMS7003;11789;53.482;9.862;2023-11-21T05:12:21;23.00;19.00;12.00
23240;PMS7003;11789;53.482;9.862;2023-11-21T05:14:48;21.25;19.00;12.00
23240;PMS7003;11789;53.482;9.862;2023-11-21T05:17:14;21.00;19.50;13.00
23240;PMS7003;11789;53.482;9.862;2023-11-21T05:19:39;21.25;19.50;12.00
23240;PMS7003;11789;53.482;9.862;2023-11-21T05:22:05;17.25;17.00;9.25
23240;PMS7003;11789;53.482;9.862;2023-11-21T05:24:31;17.00;17.00;11.50
23240;PMS7003;11789;53.482;9.862;2023-11-21T05:26:56;19.50;16.00;11.75
23240;PMS7003;11789;53.482;9.862;2023-11-21T05:29:22;22.75;18.00;12.00
23240;PMS7003;11789;53.482;9.862;2023-11-21T05:31:47;19.25;15.50;10.75
23240;PMS7003;11789;53.482;9.862;2023-11-21T05:34:13;18.75;17.00;11.50
23240;PMS7003;11789;53.482;9.862;2023-11-21T05:36:38;20.50;17.50;11.50
23240;PMS7003;11789;53.482;9.862;2023-11-21T05:39:04;14.75;14.50;10.50
23240;PMS7003;11789;53.482;9.862;2023-11-21T05:41:29;18.75;17.75;11.25
23240;PMS7003;11789;53.482;9.862;2023-11-21T05:43:55;15.00;15.00;10.50
23240;PMS7003;11789;53.482;9.862;2023-11-21T05:46:20;22.00;19.00;13.00
23240;PMS7003;11789;53.482;9.862;2023-11-21T05:48:46;19.00;17.00;11.75
23240;PMS7003;11789;53.482;9.862;2023-11-21T05:51:12;21.75;18.00;13.00
23240;PMS7003;11789;53.482;9.862;2023-11-21T05:53:38;17.50;16.00;11.75
23240;PMS7003;11789;53.482;9.862;2023-11-21T05:56:04;18.75;15.25;10.50
23240;PMS7003;11789;53.482;9.862;2023-11-21T05:58:30;22.25;21.00;13.75
23240;PMS7003;11789;53.482;9.862;2023-11-21T06:00:55;18.50;16.25;12.00
23240;PMS7003;11789;53.482;9.862;2023-11-21T06:03:20;21.50;19.50;13.50
23240;PMS7003;11789;53.482;9.862;2023-11-21T06:05:46;22.00;17.75;12.75
23240;PMS7003;11789;53.482;9.862;2023-11-21T06:08:11;23.75;20.75;13.75
23240;PMS7003;11789;53.482;9.862;2023-11-21T06:10:37;20.50;20.25;12.75
23240;PMS7003;11789;53.482;9.862;2023-11-21T06:13:02;27.75;18.50;13.00
23240;PMS7003;11789;53.482;9.862;2023-11-21T06:15:29;22.00;21.75;13.00
23240;PMS7003;11789;53.482;9.862;2023-11-21T06:17:54;18.00;16.00;12.00
23240;PMS7003;11789;53.482;9.862;2023-11-21T06:20:20;19.50;18.75;12.00
23240;PMS7003;11789;53.482;9.862;2023-11-21T06:22:48;22.25;20.25;13.25
23240;PMS7003;11789;53.482;9.862;2023-11-21T06:25:15;24.50;21.00;12.00
23240;PMS7003;11789;53.482;9.862;2023-11-21T06:27:44;20.00;18.75;11.50
23240;PMS7003;11789;53.482;9.862;2023-11-21T06:30:11;22.00;20.00;13.50
23240;PMS7003;11789;53.482;9.862;2023-11-21T06:32:39;24.00;21.75;14.25
23240;PMS7003;11789;53.482;9.862;2023-11-21T06:35:05;27.00;25.00;14.00
23240;PMS7003;11789;53.482;9.862;2023-11-21T06:37:32;20.50;19.25;11.00
23240;PMS7003;11789;53.482;9.862;2023-11-21T06:39:58;21.00;19.25;13.25
23240;PMS7003;11789;53.482;9.862;2023-11-21T06:42:25;20.50;20.25;14.00
23240;PMS7003;11789;53.482;9.862;2023-11-21T06:44:51;21.25;18.50;12.75
23240;PMS7003;11789;53.482;9.862;2023-11-21T06:47:22;20.75;20.25;12.50
23240;PMS7003;11789;53.482;9.862;2023-11-21T06:49:50;21.50;20.75;13.00
23240;PMS7003;11789;53.482;9.862;2023-11-21T06:52:17;23.50;22.25;15.00
23240;PMS7003;11789;53.482;9.862;2023-11-21T06:54:43;23.75;21.75;13.00
23240;PMS7003;11789;53.482;9.862;2023-11-21T06:57:09;23.25;19.50;12.50
23240;PMS7003;11789;53.482;9.862;2023-11-21T06:59:34;22.75;19.00;12.75
23240;PMS7003;11789;53.482;9.862;2023-11-21T07:01:59;22.50;21.75;13.00
23240;PMS7003;11789;53.482;9.862;2023-11-21T07:04:25;19.75;18.75;13.00
23240;PMS7003;11789;53.482;9.862;2023-11-21T07:06:51;27.25;23.00;13.00
23240;PMS7003;11789;53.482;9.862;2023-11-21T07:09:17;19.00;17.00;9.75
23240;PMS7003;11789;53.482;9.862;2023-11-21T07:11:42;24.75;20.50;13.00
23240;PMS7003;11789;53.482;9.862;2023-11-21T07:14:08;23.25;20.50;14.25
23240;PMS7003;11789;53.482;9.862;2023-11-21T07:16:37;18.50;17.25;12.25
23240;PMS7003;11789;53.482;9.862;2023-11-21T07:19:03;18.50;18.00;11.25
23240;PMS7003;11789;53.482;9.862;2023-11-21T07:21:31;17.50;15.25;10.00
23240;PMS7003;11789;53.482;9.862;2023-11-21T07:24:01;18.00;18.00;11.50
23240;PMS7003;11789;53.482;9.862;2023-11-21T07:26:27;23.75;23.75;14.00
23240;PMS7003;11789;53.482;9.862;2023-11-21T07:28:53;21.00;18.25;12.50
23240;PMS7003;11789;53.482;9.862;2023-11-21T07:31:18;19.75;19.50;13.00
23240;PMS7003;11789;53.482;9.862;2023-11-21T07:33:47;22.00;19.00;11.75
23240;PMS7003;11789;53.482;9.862;2023-11-21T07:36:13;20.75;20.00;13.25
23240;PMS7003;11789;53.482;9.862;2023-11-21T07:38:40;27.25;20.50;14.00
23240;PMS7003;11789;53.482;9.862;2023-11-21T07:41:05;28.00;23.25;15.00
23240;PMS7003;11789;53.482;9.862;2023-11-21T07:43:33;22.75;21.25;13.25
23240;PMS7003;11789;53.482;9.862;2023-11-21T07:46:03;24.25;21.25;14.00
23240;PMS7003;11789;53.482;9.862;2023-11-21T07:48:33;21.50;20.00;12.75
23240;PMS7003;11789;53.482;9.862;2023-11-21T07:50:59;26.75;25.50;14.50
23240;PMS7003;11789;53.482;9.862;2023-11-21T07:53:25;22.50;22.25;13.25
23240;PMS7003;11789;53.482;9.862;2023-11-21T07:55:51;25.50;23.50;14.00
23240;PMS7003;11789;53.482;9.862;2023-11-21T07:58:17;23.50;18.75;13.75
23240;PMS7003;11789;53.482;9.862;2023-11-21T08:00:43;25.50;21.50;13.00
23240;PMS7003;11789;53.482;9.862;2023-11-21T08:03:09;25.50;22.00;15.00
23240;PMS7003;11789;53.482;9.862;2023-11-21T08:05:34;17.00;17.00;12.00
23240;PMS7003;11789;53.482;9.862;2023-11-21T08:07:59;20.75;20.75;13.00
23240;PMS7003;11789;53.482;9.862;2023-11-21T08:10:25;22.75;20.75;12.00
23240;PMS7003;11789;53.482;9.862;2023-11-21T08:12:51;25.75;21.00;14.00
23240;PMS7003;11789;53.482;9.862;2023-11-21T08:15:17;19.50;19.50;13.00
23240;PMS7003;11789;53.482;9.862;2023-11-21T08:17:42;16.50;14.50;12.00
23240;PMS7003;11789;53.482;9.862;2023-11-21T08:20:08;21.25;20.75;13.50
23240;PMS7003;11789;53.482;9.862;2023-11-21T08:22:36;21.00;21.00;13.25
23240;PMS7003;11789;53.482;9.862;2023-11-21T08:25:02;18.50;16.50;12.25
23240;PMS7003;11789;53.482;9.862;2023-11-21T08:27:29;15.75;15.75;11.00
23240;PMS7003;11789;53.482;9.862;2023-11-21T08:29:55;20.00;16.50;12.25
23240;PMS7003;11789;53.482;9.862;2023-11-21T08:32:21;18.50;17.50;11.75
23240;PMS7003;11789;53.482;9.862;2023-11-21T08:34:47;18.00;15.25;10.75
23240;PMS7003;11789;53.482;9.862;2023-11-21T08:37:16;19.25;17.50;12.00
23240;PMS7003;11789;53.482;9.862;2023-11-21T08:39:41;15.50;14.25;10.75
23240;PMS7003;11789;53.482;9.862;2023-11-21T08:42:08;19.75;14.50;10.75
23240;PMS7003;11789;53.482;9.862;2023-11-21T08:44:33;14.50;13.50;10.00
23240;PMS7003;11789;53.482;9.862;2023-11-21T08:46:59;22.75;17.25;12.25
23240;PMS7003;11789;53.482;9.862;2023-11-21T08:49:24;13.00;12.75;10.00
23240;PMS7003;11789;53.482;9.862;2023-11-21T08:51:52;15.75;14.00;10.00
23240;PMS7003;11789;53.482;9.862;2023-11-21T08:54:20;19.00;15.25;12.00
23240;PMS7003;11789;53.482;9.862;2023-11-21T08:56:46;13.50;13.50;9.00
23240;PMS7003;11789;53.482;9.862;2023-11-21T08:59:12;14.75;13.75;9.00
23240;PMS7003;11789;53.482;9.862;2023-11-21T09:01:39;16.25;13.25;8.75
23240;PMS7003;11789;53.482;9.862;2023-11-21T09:04:05;21.50;14.50;10.25
23240;PMS7003;11789;53.482;9.862;2023-11-21T09:06:30;13.00;13.00;9.00
23240;PMS7003;11789;53.482;9.862;2023-11-21T09:08:56;14.25;13.50;9.75
23240;PMS7003;11789;53.482;9.862;2023-11-21T09:11:21;15.75;13.75;10.00
23240;PMS7003;11789;53.482;9.862;2023-11-21T09:13:46;14.75;13.00;9.00
23240;PMS7003;11789;53.482;9.862;2023-11-21T09:16:13;15.75;12.75;10.50
23240;PMS7003;11789;53.482;9.862;2023-11-21T09:18:40;14.50;12.50;8.25
23240;PMS7003;11789;53.482;9.862;2023-11-21T09:21:06;13.75;13.75;7.25
23240;PMS7003;11789;53.482;9.862;2023-11-21T09:23:31;14.00;12.00;8.50
23240;PMS7003;11789;53.482;9.862;2023-11-21T09:25:57;14.75;11.25;7.75
23240;PMS7003;11789;53.482;9.862;2023-11-21T09:28:24;13.75;13.75;8.25
23240;PMS7003;11789;53.482;9.862;2023-11-21T09:30:52;12.00;11.75;8.25
23240;PMS7003;11789;53.482;9.862;2023-11-21T09:33:18;11.50;11.50;8.50
23240;PMS7003;11789;53.482;9.862;2023-11-21T09:35:43;6.25;6.25;2.00
23240;PMS7003;11789;53.482;9.862;2023-11-21T09:38:09;12.75;11.50;8.25
23240;PMS7003;11789;53.482;9.862;2023-11-21T09:40:36;10.75;10.75;7.00
23240;PMS7003;11789;53.482;9.862;2023-11-21T09:43:09;14.25;12.00;8.00
23240;PMS7003;11789;53.482;9.862;2023-11-21T09:45:43;7.75;7.75;6.00
23240;PMS7003;11789;53.482;9.862;2023-11-21T09:48:10;10.50;10.50;7.00
23240;PMS7003;11789;53.482;9.862;2023-11-21T09:50:37;9.75;7.75;5.75
23240;PMS7003;11789;53.482;9.862;2023-11-21T09:53:19;10.00;10.00;6.50
23240;PMS7003;11789;53.482;9.862;2023-11-21T09:55:53;9.00;7.50;5.75
23240;PMS7003;11789;53.482;9.862;2023-11-21T09:58:19;8.25;8.25;6.00
23240;PMS7003;11789;53.482;9.862;2023-11-21T10:00:47;11.75;9.50;6.00
23240;PMS7003;11789;53.482;9.862;2023-11-21T10:03:14;12.00;10.25;7.00
23240;PMS7003;11789;53.482;9.862;2023-11-21T10:05:41;9.50;9.50;6.25
23240;PMS7003;11789;53.482;9.862;2023-11-21T10:08:08;7.25;7.25;5.75
23240;PMS7003;11789;53.482;9.862;2023-11-21T10:10:35;10.00;9.50;6.00
23240;PMS7003;11789;53.482;9.862;2023-11-21T10:13:11;12.50;7.25;5.00
23240;PMS7003;11789;53.482;9.862;2023-11-21T10:15:37;9.25;9.25;6.00
23240;PMS7003;11789;53.482;9.862;2023-11-21T10:18:03;9.00;8.25;6.00
23240;PMS7003;11789;53.482;9.862;2023-11-21T10:20:31;11.50;10.25;6.25
23240;PMS7003;11789;53.482;9.862;2023-11-21T10:22:58;11.25;9.75;6.50
23240;PMS7003;11789;53.482;9.862;2023-11-21T10:25:27;8.25;8.25;6.00
23240;PMS7003;11789;53.482;9.862;2023-11-21T10:27:57;9.50;9.50;7.00
23240;PMS7003;11789;53.482;9.862;2023-11-21T10:30:32;8.50;8.50;6.00
23240;PMS7003;11789;53.482;9.862;2023-11-21T10:33:02;9.25;7.25;6.00
23240;PMS7003;11789;53.482;9.862;2023-11-21T10:38:15;13.00;12.00;6.50
23240;PMS7003;11789;53.482;9.862;2023-11-21T10:40:46;9.00;7.75;6.00
23240;PMS7003;11789;53.482;9.862;2023-11-21T10:43:13;12.50;8.50;5.75
23240;PMS7003;11789;53.482;9.862;2023-11-21T10:45:40;8.00;8.00;6.00
23240;PMS7003;11789;53.482;9.862;2023-11-21T10:48:06;7.00;6.25;4.00
23240;PMS7003;11789;53.482;9.862;2023-11-21T10:50:36;11.50;9.25;6.50
23240;PMS7003;11789;53.482;9.862;2023-11-21T10:53:02;12.50;9.50;6.00
23240;PMS7003;11789;53.482;9.862;2023-11-21T10:55:29;11.00;11.00;7.50
23240;PMS7003;11789;53.482;9.862;2023-11-21T10:57:57;8.25;8.25;6.25
23240;PMS7003;11789;53.482;9.862;2023-11-21T11:00:25;10.50;10.50;7.00
23240;PMS7003;11789;53.482;9.862;2023-11-21T11:02:52;11.50;9.25;5.75
23240;PMS7003;11789;53.482;9.862;2023-11-21T11:05:19;10.75;10.75;7.00
23240;PMS7003;11789;53.482;9.862;2023-11-21T11:07:48;11.75;9.50;7.00
23240;PMS7003;11789;53.482;9.862;2023-11-21T11:10:20;11.50;9.25;7.00
23240;PMS7003;11789;53.482;9.862;2023-11-21T11:12:48;8.00;8.00;7.00
23240;PMS7003;11789;53.482;9.862;2023-11-21T11:15:15;6.50;6.25;5.00
23240;PMS7003;11789;53.482;9.862;2023-11-21T11:17:41;12.00;7.25;6.00
23240;PMS7003;11789;53.482;9.862;2023-11-21T11:20:10;9.25;8.50;7.00
23240;PMS7003;11789;53.482;9.862;2023-11-21T11:22:59;7.75;7.75;5.25
23240;PMS7003;11789;53.482;9.862;2023-11-21T11:28:20;10.00;10.00;7.25
23240;PMS7003;11789;53.482;9.862;2023-11-21T11:39:34;8.00;7.50;5.00
23240;PMS7003;11789;53.482;9.862;2023-11-21T11:42:02;9.00;7.00;5.50
23240;PMS7003;11789;53.482;9.862;2023-11-21T11:47:14;8.00;7.00;5.00
23240;PMS7003;11789;53.482;9.862;2023-11-21T11:50:00;9.75;7.75;6.00
23240;PMS7003;11789;53.482;9.862;2023-11-21T11:55:04;11.25;7.75;6.50
23240;PMS7003;11789;53.482;9.862;2023-11-21T11:57:30;9.00;7.25;6.50
23240;PMS7003;11789;53.482;9.862;2023-11-21T12:02:46;8.75;8.75;6.00
23240;PMS7003;11789;53.482;9.862;2023-11-21T12:05:22;8.25;8.25;6.00
23240;PMS7003;11789;53.482;9.862;2023-11-21T12:07:52;8.25;8.25;6.00
23240;PMS7003;11789;53.482;9.862;2023-11-21T12:10:20;8.75;7.25;6.00
23240;PMS7003;11789;53.482;9.862;2023-11-21T12:12:50;8.00;8.00;6.00
23240;PMS7003;11789;53.482;9.862;2023-11-21T12:15:17;7.75;7.75;5.00
23240;PMS7003;11789;53.482;9.862;2023-11-21T12:17:44;6.75;6.75;6.00
23240;PMS7003;11789;53.482;9.862;2023-11-21T12:20:11;7.25;7.25;5.25
23240;PMS7003;11789;53.482;9.862;2023-11-21T12:22:49;7.25;7.25;6.00
23240;PMS7003;11789;53.482;9.862;2023-11-21T12:25:16;7.75;7.50;6.00
23240;PMS7003;11789;53.482;9.862;2023-11-21T12:27:47;7.00;7.00;5.75
23240;PMS7003;11789;53.482;9.862;2023-11-21T12:30:17;8.50;8.50;6.75
23240;PMS7003;11789;53.482;9.862;2023-11-21T12:32:44;7.75;7.75;6.00
23240;PMS7003;11789;53.482;9.862;2023-11-21T12:35:12;10.25;10.00;6.00
23240;PMS7003;11789;53.482;9.862;2023-11-21T12:37:38;7.25;7.25;6.25
23240;PMS7003;11789;53.482;9.862;2023-11-21T12:40:06;9.25;9.25;6.75
23240;PMS7003;11789;53.482;9.862;2023-11-21T12:42:33;12.50;8.75;6.00
23240;PMS7003;11789;53.482;9.862;2023-11-21T12:45:09;8.25;6.50;6.00
23240;PMS7003;11789;53.482;9.862;2023-11-21T12:47:42;8.00;8.00;5.00
23240;PMS7003;11789;53.482;9.862;2023-11-21T12:50:09;8.50;6.00;5.00
23240;PMS7003;11789;53.482;9.862;2023-11-21T12:52:44;7.50;7.50;5.75
23240;PMS7003;11789;53.482;9.862;2023-11-21T12:55:14;8.25;7.00;5.00
23240;PMS7003;11789;53.482;9.862;2023-11-21T12:57:44;8.25;8.25;6.25
23240;PMS7003;11789;53.482;9.862;2023-11-21T13:00:10;8.25;8.25;6.00
23240;PMS7003;11789;53.482;9.862;2023-11-21T13:02:41;8.50;8.50;5.50
23240;PMS7003;11789;53.482;9.862;2023-11-21T13:05:08;8.50;8.50;6.00
23240;PMS7003;11789;53.482;9.862;2023-11-21T13:07:43;7.00;7.00;6.00
23240;PMS7003;11789;53.482;9.862;2023-11-21T13:10:12;7.00;7.00;5.50
23240;PMS7003;11789;53.482;9.862;2023-11-21T13:12:45;4.50;4.50;3.25
23240;PMS7003;11789;53.482;9.862;2023-11-21T13:15:14;11.25;11.25;6.25
23240;PMS7003;11789;53.482;9.862;2023-11-21T13:17:43;8.00;7.00;5.75
23240;PMS7003;11789;53.482;9.862;2023-11-21T13:20:12;7.00;7.00;6.00
23240;PMS7003;11789;53.482;9.862;2023-11-21T13:25:23;10.00;8.50;6.00
23240;PMS7003;11789;53.482;9.862;2023-11-21T13:27:49;11.50;8.25;6.00
23240;PMS7003;11789;53.482;9.862;2023-11-21T13:30:16;11.75;8.50;5.50
23240;PMS7003;11789;53.482;9.862;2023-11-21T13:32:45;10.00;8.25;6.00
23240;PMS7003;11789;53.482;9.862;2023-11-21T13:35:11;2.50;1.00;0.00
23240;PMS7003;11789;53.482;9.862;2023-11-21T13:37:46;7.00;7.00;5.25
23240;PMS7003;11789;53.482;9.862;2023-11-21T13:40:14;7.50;6.00;5.00
23240;PMS7003;11789;53.482;9.862;2023-11-21T13:42:45;7.75;6.00;4.00
23240;PMS7003;11789;53.482;9.862;2023-11-21T13:45:11;6.50;6.50;4.25
23240;PMS7003;11789;53.482;9.862;2023-11-21T13:47:37;7.00;5.50;4.50
23240;PMS7003;11789;53.482;9.862;2023-11-21T13:50:05;11.50;8.25;6.00
23240;PMS7003;11789;53.482;9.862;2023-11-21T13:52:39;7.00;7.00;6.00
23240;PMS7003;11789;53.482;9.862;2023-11-21T13:55:04;8.00;8.00;5.00
23240;PMS7003;11789;53.482;9.862;2023-11-21T13:57:32;6.00;6.00;5.00
23240;PMS7003;11789;53.482;9.862;2023-11-21T13:59:58;6.00;6.00;5.00
23240;PMS7003;11789;53.482;9.862;2023-11-21T14:02:24;10.00;10.00;6.50
23240;PMS7003;11789;53.482;9.862;2023-11-21T14:04:57;10.75;9.00;5.25
23240;PMS7003;11789;53.482;9.862;2023-11-21T14:07:26;12.50;7.75;6.00
23240;PMS7003;11789;53.482;9.862;2023-11-21T14:10:11;8.50;8.50;4.75
23240;PMS7003;11789;53.482;9.862;2023-11-21T14:12:39;9.75;7.50;5.50
23240;PMS7003;11789;53.482;9.862;2023-11-21T14:15:07;6.25;6.25;5.00
23240;PMS7003;11789;53.482;9.862;2023-11-21T14:17:35;6.00;6.00;5.00
23240;PMS7003;11789;53.482;9.862;2023-11-21T14:20:03;6.50;6.50;5.00